createdAt,value
2023-02-14T00:00:06.036Z,81.33
2023-02-14T00:02:35.359Z,81.55
2023-02-14T00:05:01.945Z,81.32
2023-02-14T00:07:28.597Z,81.16
2023-02-14T00:09:55.158Z,82.39
2023-02-14T00:12:21.765Z,82.40
2023-02-14T00:15:06.787Z,82.49
2023-02-14T00:17:33.413Z,82.44
2023-02-14T00:19:59.993Z,82.15
2023-02-14T00:22:26.631Z,82.31
2023-02-14T00:24:53.248Z,82.90
2023-02-14T00:27:19.852Z,82.85
2023-02-14T00:29:46.489Z,82.59
2023-02-14T00:32:13.103Z,82.60
2023-02-14T00:34:40.486Z,82.94
2023-02-14T00:40:14.150Z,82.46
2023-02-14T00:42:40.816Z,82.83
2023-02-14T00:45:07.741Z,83.03
2023-02-14T00:47:35.154Z,83.53
2023-02-14T00:50:03.001Z,83.71
2023-02-14T00:52:30.892Z,83.90
2023-02-14T00:54:57.973Z,84.68
2023-02-14T00:57:33.128Z,85.01
2023-02-14T00:59:59.721Z,84.61
2023-02-14T01:02:26.876Z,84.14
2023-02-14T01:04:53.508Z,84.18
2023-02-14T01:07:22.679Z,84.29
2023-02-14T01:09:49.222Z,84.28
2023-02-14T01:12:15.788Z,84.51
2023-02-14T01:14:42.355Z,84.21
2023-02-14T01:17:08.937Z,84.52
2023-02-14T01:19:36.673Z,84.55
2023-02-14T01:22:03.298Z,84.64
2023-02-14T01:24:29.887Z,84.65
2023-02-14T01:26:56.446Z,84.56
2023-02-14T01:29:23.022Z,84.32
2023-02-14T01:31:52.235Z,84.42
2023-02-14T01:34:18.953Z,84.49
2023-02-14T01:36:46.899Z,84.59
2023-02-14T01:39:15.062Z,84.46
2023-02-14T01:41:48.526Z,84.34
2023-02-14T01:44:16.781Z,84.77
2023-02-14T01:46:45.328Z,84.85
2023-02-14T01:49:26.087Z,85.01
2023-02-14T01:52:06.033Z,84.98
2023-02-14T01:54:38.426Z,84.64
2023-02-14T01:57:08.674Z,84.65
2023-02-14T01:59:43.482Z,84.38
2023-02-14T02:02:10.727Z,84.66
2023-02-14T02:04:41.981Z,84.95
2023-02-14T02:07:20.071Z,85.03
2023-02-14T02:09:52.723Z,84.86
2023-02-14T02:12:20.311Z,84.79
2023-02-14T02:14:48.619Z,84.88
2023-02-14T02:17:15.158Z,84.93
2023-02-14T02:19:59.505Z,85.76
2023-02-14T02:22:48.575Z,85.48
2023-02-14T02:25:37.210Z,85.55
2023-02-14T02:28:03.781Z,85.74
2023-02-14T02:30:57.544Z,85.69
2023-02-14T02:33:42.787Z,85.43
2023-02-14T02:36:32.680Z,85.61
2023-02-14T02:39:21.709Z,85.55
2023-02-14T02:42:16.336Z,85.58
2023-02-14T02:45:02.224Z,85.44
2023-02-14T02:47:36.510Z,85.03
2023-02-14T02:50:35.255Z,85.14
2023-02-14T02:53:15.254Z,85.14
2023-02-14T02:56:02.550Z,83.93
2023-02-14T02:58:39.740Z,81.44
2023-02-14T03:01:12.684Z,81.89
2023-02-14T03:04:00.749Z,81.60
2023-02-14T03:06:27.349Z,80.57
2023-02-14T03:08:53.909Z,80.49
2023-02-14T03:11:21.142Z,80.70
2023-02-14T03:13:47.730Z,80.76
2023-02-14T03:16:34.182Z,80.99
2023-02-14T03:19:34.400Z,82.10
2023-02-14T03:22:20.420Z,81.76
2023-02-14T03:25:01.895Z,81.80
2023-02-14T03:27:35.478Z,82.68
2023-02-14T03:30:28.058Z,81.96
2023-02-14T03:33:19.615Z,82.21
2023-02-14T03:36:24.070Z,82.48
2023-02-14T03:39:06.010Z,83.13
2023-02-14T03:41:39.611Z,83.12
2023-02-14T03:44:11.284Z,83.44
2023-02-14T03:46:44.519Z,83.88
2023-02-14T03:49:17.268Z,83.52
2023-02-14T03:51:48.031Z,83.40
2023-02-14T03:54:14.636Z,83.78
2023-02-14T03:56:52.741Z,83.12
2023-02-14T03:59:24.881Z,82.65
2023-02-14T04:02:27.197Z,83.14
2023-02-14T04:04:55.892Z,83.49
2023-02-14T04:07:24.108Z,83.83
2023-02-14T04:09:51.229Z,83.99
2023-02-14T04:12:26.511Z,83.94
2023-02-14T04:14:59.047Z,84.35
2023-02-14T04:17:43.925Z,84.29
2023-02-14T04:20:10.784Z,83.98
2023-02-14T04:22:37.338Z,83.62
2023-02-14T04:25:04.109Z,83.65
2023-02-14T04:27:31.007Z,81.74
2023-02-14T04:29:57.617Z,81.34
2023-02-14T04:32:24.373Z,80.88
2023-02-14T04:34:51.043Z,80.91
2023-02-14T04:37:19.622Z,81.18
2023-02-14T04:39:46.492Z,81.69
2023-02-14T04:42:13.407Z,80.23
2023-02-14T04:44:40.041Z,80.58
2023-02-14T04:47:07.745Z,81.22
2023-02-14T04:49:34.884Z,81.36
2023-02-14T04:52:01.574Z,81.28
2023-02-14T04:54:28.592Z,80.76
2023-02-14T04:56:55.266Z,80.76
2023-02-14T04:59:24.679Z,80.91
2023-02-14T05:01:52.596Z,80.97
2023-02-14T05:04:19.235Z,80.92
2023-02-14T05:06:45.957Z,80.63
2023-02-14T05:09:12.543Z,80.37
2023-02-14T05:11:39.217Z,80.38
2023-02-14T05:14:05.947Z,80.18
2023-02-14T05:16:32.663Z,79.21
2023-02-14T05:18:59.319Z,79.10
2023-02-14T05:21:26.246Z,79.22
2023-02-14T05:23:52.806Z,78.87
2023-02-14T05:26:19.382Z,78.30
2023-02-14T05:28:45.909Z,78.56
2023-02-14T05:31:12.619Z,78.36
2023-02-14T05:33:39.315Z,79.23
2023-02-14T05:36:06.697Z,79.00
2023-02-14T05:38:34.817Z,78.92
2023-02-14T05:41:02.307Z,79.54
2023-02-14T05:43:30.381Z,78.80
2023-02-14T05:45:57.614Z,78.09
2023-02-14T05:48:24.672Z,77.22
2023-02-14T05:50:51.515Z,77.88
2023-02-14T05:53:18.176Z,77.65
2023-02-14T05:55:44.858Z,78.01
2023-02-14T05:58:12.612Z,78.02
2023-02-14T06:00:41.290Z,78.16
2023-02-14T06:03:08.615Z,78.48
2023-02-14T06:05:35.363Z,78.52
2023-02-14T06:08:02.047Z,78.77
2023-02-14T06:10:29.244Z,79.21
2023-02-14T06:12:55.955Z,79.69
2023-02-14T06:15:22.797Z,79.81
2023-02-14T06:17:56.771Z,80.35
2023-02-14T06:20:24.673Z,80.21
2023-02-14T06:22:51.907Z,79.90
2023-02-14T06:25:19.026Z,80.20
2023-02-14T06:27:48.826Z,80.24
2023-02-14T06:30:16.959Z,79.51
2023-02-14T06:32:43.682Z,79.61
2023-02-14T06:35:10.244Z,79.89
2023-02-14T06:37:38.595Z,79.84
2023-02-14T06:40:05.869Z,79.95
2023-02-14T06:42:32.494Z,80.20
2023-02-14T06:44:59.274Z,80.79
2023-02-14T06:47:25.948Z,80.84
2023-02-14T06:49:52.529Z,81.20
2023-02-14T06:52:19.155Z,81.16
2023-02-14T06:54:45.878Z,81.29
2023-02-14T06:57:12.495Z,81.71
2023-02-14T06:59:39.103Z,81.17
2023-02-14T07:02:05.902Z,81.02
2023-02-14T07:04:32.595Z,80.15
2023-02-14T07:07:01.231Z,79.57
2023-02-14T07:09:27.832Z,79.60
2023-02-14T07:11:54.500Z,78.72
2023-02-14T07:14:21.102Z,78.54
2023-02-14T07:16:47.990Z,78.50
2023-02-14T07:19:14.951Z,78.18
2023-02-14T07:21:41.619Z,77.32
2023-02-14T07:24:08.223Z,76.84
2023-02-14T07:26:34.846Z,77.43
2023-02-14T07:29:01.469Z,76.98
2023-02-14T07:31:28.173Z,77.50
2023-02-14T07:33:54.955Z,77.53
2023-02-14T07:36:21.499Z,77.58
2023-02-14T07:38:48.109Z,77.77
2023-02-14T07:41:14.717Z,77.75
2023-02-14T07:43:41.321Z,77.53
2023-02-14T07:46:08.498Z,77.42
2023-02-14T07:48:35.178Z,78.19
2023-02-14T07:51:02.703Z,78.08
2023-02-14T07:53:29.550Z,78.62
2023-02-14T07:55:56.626Z,76.98
2023-02-14T07:58:23.320Z,76.94
2023-02-14T08:00:51.165Z,77.34
2023-02-14T08:03:18.017Z,76.40
2023-02-14T08:05:44.648Z,76.51
2023-02-14T08:08:11.217Z,76.44
2023-02-14T08:10:37.762Z,76.99
2023-02-14T08:13:04.409Z,76.36
2023-02-14T08:15:52.295Z,75.38
2023-02-14T08:18:20.953Z,76.32
2023-02-14T08:20:51.647Z,76.17
2023-02-14T08:23:19.038Z,75.66
2023-02-14T08:25:46.584Z,76.43
2023-02-14T08:28:13.865Z,76.14
2023-02-14T08:30:42.141Z,76.04
2023-02-14T08:33:08.933Z,76.63
2023-02-14T08:35:38.006Z,76.92
2023-02-14T08:38:05.097Z,75.52
2023-02-14T08:40:33.261Z,75.06
2023-02-14T08:42:59.910Z,75.38
2023-02-14T08:45:26.522Z,75.03
2023-02-14T08:47:53.150Z,75.99
2023-02-14T08:50:20.225Z,76.01
2023-02-14T08:52:46.860Z,75.78
2023-02-14T08:55:13.814Z,76.03
2023-02-14T08:57:40.690Z,76.21
2023-02-14T09:00:09.878Z,75.40
2023-02-14T09:02:37.487Z,76.84
2023-02-14T09:05:04.510Z,75.79
2023-02-14T09:07:31.080Z,75.90
2023-02-14T09:09:57.770Z,75.44
2023-02-14T09:12:24.512Z,75.44
2023-02-14T09:14:51.176Z,75.21
2023-02-14T09:17:18.464Z,75.20
2023-02-14T09:19:45.991Z,75.50
2023-02-14T09:22:12.678Z,75.22
2023-02-14T09:24:41.370Z,75.32
2023-02-14T09:27:08.531Z,75.11
2023-02-14T09:29:35.236Z,73.87
2023-02-14T09:32:02.945Z,74.80
2023-02-14T09:34:30.051Z,74.75
2023-02-14T09:37:15.487Z,74.47
2023-02-14T09:39:42.113Z,75.07
2023-02-14T09:42:14.988Z,74.92
2023-02-14T09:44:51.559Z,76.05
2023-02-14T09:47:20.983Z,74.41
2023-02-14T09:49:48.943Z,74.76
2023-02-14T09:52:19.275Z,74.82
2023-02-14T09:54:51.141Z,75.41
2023-02-14T09:57:30.658Z,74.53
2023-02-14T10:00:01.516Z,74.66
2023-02-14T10:02:31.135Z,74.54
2023-02-14T10:05:12.990Z,74.66
2023-02-14T10:08:00.043Z,74.29
2023-02-14T10:10:42.040Z,74.91
2023-02-14T10:13:33.520Z,74.48
2023-02-14T10:16:12.113Z,74.86
2023-02-14T10:18:46.077Z,73.85
2023-02-14T10:21:31.399Z,73.93
2023-02-14T10:24:04.449Z,72.93
2023-02-14T10:26:41.230Z,74.13
2023-02-14T10:29:14.799Z,72.82
2023-02-14T10:32:00.662Z,72.98
2023-02-14T10:34:46.070Z,73.12
2023-02-14T10:37:36.084Z,72.39
2023-02-14T10:40:24.242Z,71.91
2023-02-14T10:43:04.565Z,71.68
2023-02-14T10:45:45.852Z,71.50
2023-02-14T10:48:30.375Z,71.65
2023-02-14T10:51:23.945Z,73.21
2023-02-14T10:54:06.156Z,73.50
2023-02-14T10:56:58.516Z,72.33
2023-02-14T10:59:30.891Z,73.12
2023-02-14T11:01:59.853Z,73.36
2023-02-14T11:04:27.240Z,72.52
2023-02-14T11:06:53.954Z,72.28
2023-02-14T11:09:21.308Z,72.55
2023-02-14T11:11:54.569Z,72.50
2023-02-14T11:14:35.972Z,72.57
2023-02-14T11:17:32.454Z,73.03
2023-02-14T11:20:06.616Z,72.81
2023-02-14T11:22:34.617Z,72.32
2023-02-14T11:25:20.228Z,73.19
2023-02-14T11:27:52.050Z,73.82
2023-02-14T11:30:26.713Z,73.60
2023-02-14T11:32:56.267Z,72.84
2023-02-14T11:35:33.792Z,73.60
2023-02-14T11:38:22.781Z,72.83
2023-02-14T11:40:55.821Z,72.61
2023-02-14T11:43:40.417Z,73.69
2023-02-14T11:46:27.237Z,72.07
2023-02-14T11:48:58.094Z,72.62
2023-02-14T11:51:35.108Z,71.75
2023-02-14T11:54:05.387Z,72.35
2023-02-14T11:56:48.408Z,73.36
2023-02-14T11:59:53.371Z,71.98
2023-02-14T12:02:42.667Z,71.57
2023-02-14T12:05:30.378Z,70.76
2023-02-14T12:08:03.401Z,70.31
2023-02-14T12:10:31.181Z,70.82
2023-02-14T12:13:03.131Z,71.41
2023-02-14T12:15:37.714Z,71.00
2023-02-14T12:18:46.996Z,70.92
2023-02-14T12:21:23.562Z,71.02
2023-02-14T12:24:29.690Z,70.87
2023-02-14T12:27:15.058Z,70.86
2023-02-14T12:29:47.880Z,70.85
2023-02-14T12:32:26.994Z,72.57
2023-02-14T12:35:18.526Z,71.92
2023-02-14T12:38:08.919Z,71.19
2023-02-14T12:41:12.693Z,70.58
2023-02-14T12:43:55.927Z,70.52
2023-02-14T12:46:43.919Z,70.49
2023-02-14T12:49:49.479Z,70.88
2023-02-14T12:52:27.615Z,69.95
2023-02-14T12:55:00.364Z,71.25
2023-02-14T12:57:26.934Z,70.82
2023-02-14T13:00:30.770Z,70.89
2023-02-14T13:03:54.407Z,69.92
2023-02-14T13:06:26.202Z,68.33
2023-02-14T13:09:11.132Z,69.92
2023-02-14T13:12:04.269Z,70.74
2023-02-14T13:14:42.778Z,70.36
2023-02-14T13:17:34.789Z,71.10
2023-02-14T13:20:19.909Z,69.73
2023-02-14T13:22:48.836Z,69.04
2023-02-14T13:25:18.147Z,69.36
2023-02-14T13:27:44.809Z,68.60
2023-02-14T13:30:33.319Z,69.83
2023-02-14T13:33:08.495Z,69.20
2023-02-14T13:35:35.768Z,68.50
2023-02-14T13:38:08.387Z,69.80
2023-02-14T13:40:36.422Z,70.34
2023-02-14T13:43:03.249Z,69.29
2023-02-14T13:45:30.288Z,69.29
2023-02-14T13:48:29.330Z,68.14
2023-02-14T13:50:57.761Z,66.89
2023-02-14T13:53:46.653Z,66.81
2023-02-14T13:56:15.973Z,65.64
2023-02-14T13:58:54.993Z,66.22
2023-02-14T14:01:35.894Z,65.79
2023-02-14T14:04:07.479Z,67.06
2023-02-14T14:06:59.996Z,65.16
2023-02-14T14:09:41.769Z,66.34
2023-02-14T14:12:26.204Z,67.03
2023-02-14T14:15:04.954Z,68.59
2023-02-14T14:18:08.000Z,69.11
2023-02-14T14:20:39.819Z,69.66
2023-02-14T14:23:29.629Z,69.02
2023-02-14T14:25:56.538Z,69.86
2023-02-14T14:28:25.822Z,70.09
2023-02-14T14:30:52.648Z,69.60
2023-02-14T14:33:32.965Z,69.72
2023-02-14T14:36:02.437Z,70.23
2023-02-14T14:38:30.961Z,70.41
2023-02-14T14:40:59.990Z,70.97
2023-02-14T14:43:30.653Z,70.72
2023-02-14T14:45:59.399Z,70.84
2023-02-14T14:48:54.910Z,70.60
2023-02-14T14:51:33.364Z,71.17
2023-02-14T14:54:03.424Z,71.94
2023-02-14T14:56:34.255Z,71.58
2023-02-14T14:59:40.406Z,72.09
2023-02-14T15:02:26.623Z,71.24
2023-02-14T15:04:53.636Z,71.80
2023-02-14T15:07:23.936Z,72.34
2023-02-14T15:09:51.278Z,72.76
2023-02-14T15:12:45.407Z,73.21
2023-02-14T15:15:15.742Z,73.41
2023-02-14T15:17:43.494Z,73.83
2023-02-14T15:20:17.367Z,74.49
2023-02-14T15:22:46.819Z,74.53
2023-02-14T15:25:19.920Z,75.15
2023-02-14T15:27:47.705Z,75.68
2023-02-14T15:30:23.749Z,76.09
2023-02-14T15:32:52.012Z,76.70
2023-02-14T15:35:24.917Z,76.66
2023-02-14T15:37:52.928Z,76.91
2023-02-14T15:40:29.060Z,76.75
2023-02-14T15:42:58.993Z,77.34
2023-02-14T15:45:26.179Z,77.61
2023-02-14T15:47:56.006Z,77.70
2023-02-14T15:50:29.214Z,77.79
2023-02-14T15:53:04.767Z,77.84
2023-02-14T15:55:33.391Z,78.95
2023-02-14T15:58:04.770Z,79.31
2023-02-14T16:00:32.645Z,78.86
2023-02-14T16:03:06.333Z,79.11
2023-02-14T16:05:33.309Z,79.05
2023-02-14T16:08:08.005Z,79.11
2023-02-14T16:10:37.385Z,79.61
2023-02-14T16:13:13.349Z,79.87
2023-02-14T16:15:55.697Z,80.12
2023-02-14T16:18:35.609Z,80.25
2023-02-14T16:21:11.222Z,80.09
2023-02-14T16:23:38.187Z,80.71
2023-02-14T16:26:08.380Z,80.62
2023-02-14T16:28:36.881Z,80.15
2023-02-14T16:31:10.194Z,80.66
2023-02-14T16:33:39.621Z,80.82
2023-02-14T16:36:09.428Z,81.07
2023-02-14T16:38:42.499Z,81.23
2023-02-14T16:41:16.963Z,81.63
2023-02-14T16:43:43.986Z,81.65
2023-02-14T16:46:15.711Z,82.14
2023-02-14T16:48:43.786Z,82.09
2023-02-14T16:51:14.816Z,82.01
2023-02-14T16:53:43.026Z,82.68
2023-02-14T16:56:16.970Z,82.78
2023-02-14T16:58:43.966Z,83.36
2023-02-14T17:01:10.670Z,83.32
2023-02-14T17:03:39.658Z,83.95
2023-02-14T17:06:08.096Z,83.31
2023-02-14T17:08:35.227Z,83.60
2023-02-14T17:11:04.264Z,83.68
2023-02-14T17:13:33.516Z,83.39
2023-02-14T17:16:01.574Z,83.93
2023-02-14T17:18:32.193Z,83.45
2023-02-14T17:20:59.495Z,83.52
2023-02-14T17:23:26.984Z,83.50
2023-02-14T17:25:53.578Z,83.23
2023-02-14T17:28:20.254Z,83.50
2023-02-14T17:30:47.501Z,83.86
2023-02-14T17:33:14.407Z,83.95
2023-02-14T17:35:40.994Z,84.00
2023-02-14T17:38:07.620Z,84.29
2023-02-14T17:40:34.307Z,84.26
2023-02-14T17:43:01.185Z,84.25
2023-02-14T17:45:27.766Z,84.75
2023-02-14T17:47:54.470Z,85.07
2023-02-14T17:50:21.417Z,85.13
2023-02-14T17:52:48.219Z,84.83
2023-02-14T17:55:15.812Z,84.88
2023-02-14T17:57:42.491Z,85.03
2023-02-14T18:00:11.754Z,85.31
2023-02-14T18:02:41.700Z,85.50
2023-02-14T18:05:08.369Z,85.22
2023-02-14T18:07:35.706Z,85.31
2023-02-14T18:10:02.308Z,84.66
2023-02-14T18:12:28.890Z,85.05
2023-02-14T18:14:56.137Z,84.89
2023-02-14T18:17:23.075Z,85.48
2023-02-14T18:19:49.752Z,85.40
2023-02-14T18:22:16.396Z,85.53
2023-02-14T18:24:43.122Z,85.35
2023-02-14T18:27:09.736Z,85.25
2023-02-14T18:29:36.590Z,85.41
2023-02-14T18:32:04.856Z,85.78
2023-02-14T18:34:32.733Z,86.03
2023-02-14T18:37:01.736Z,86.11
2023-02-14T18:39:28.408Z,85.70
2023-02-14T18:41:59.896Z,85.79
2023-02-14T18:44:28.272Z,85.58
2023-02-14T18:46:55.885Z,85.81
2023-02-14T18:49:22.787Z,85.60
2023-02-14T18:51:49.513Z,85.68
2023-02-14T18:54:16.191Z,86.19
2023-02-14T18:56:43.122Z,85.69
2023-02-14T18:59:11.200Z,85.80
2023-02-14T19:01:42.069Z,85.94
2023-02-14T19:04:12.075Z,85.92
2023-02-14T19:06:40.925Z,86.17
2023-02-14T19:09:10.822Z,86.11
2023-02-14T19:11:38.687Z,86.47
2023-02-14T19:14:09.891Z,86.52
2023-02-14T19:16:43.909Z,86.87
2023-02-14T19:19:10.791Z,86.67
2023-02-14T19:21:37.484Z,86.82
2023-02-14T19:24:07.424Z,86.51
2023-02-14T19:26:40.534Z,86.52
2023-02-14T19:29:11.246Z,86.71
2023-02-14T19:31:41.289Z,86.90
2023-02-14T19:34:14.999Z,86.60
2023-02-14T19:36:41.554Z,86.74
2023-02-14T19:39:08.486Z,86.38
2023-02-14T19:41:35.094Z,86.32
2023-02-14T19:44:04.700Z,86.87
2023-02-14T19:46:32.034Z,86.39
2023-02-14T19:48:59.036Z,87.03
2023-02-14T19:51:28.815Z,87.28
2023-02-14T19:53:57.199Z,86.71
2023-02-14T19:56:27.181Z,86.74
2023-02-14T19:58:56.092Z,86.66
2023-02-14T20:01:36.305Z,86.74
2023-02-14T20:04:04.792Z,86.95
2023-02-14T20:06:31.417Z,86.92
2023-02-14T20:08:58.086Z,86.78
2023-02-14T20:11:41.367Z,86.82
2023-02-14T20:14:09.106Z,86.97
2023-02-14T20:16:37.131Z,87.23
2023-02-14T20:19:08.118Z,87.07
2023-02-14T20:21:35.073Z,87.43
2023-02-14T20:24:03.648Z,87.71
2023-02-14T20:26:32.383Z,87.47
2023-02-14T20:29:04.314Z,87.78
2023-02-14T20:31:34.516Z,87.84
2023-02-14T20:34:01.628Z,87.96
2023-02-14T20:36:28.678Z,87.58
2023-02-14T20:38:56.220Z,87.99
2023-02-14T20:41:23.728Z,87.65
2023-02-14T20:43:50.783Z,87.58
2023-02-14T20:46:17.555Z,87.93
2023-02-14T20:48:44.221Z,87.62
2023-02-14T20:51:16.451Z,87.60
2023-02-14T20:53:44.485Z,87.38
2023-02-14T20:56:12.141Z,87.45
2023-02-14T20:58:39.567Z,87.23
2023-02-14T21:01:06.245Z,87.86
2023-02-14T21:03:35.682Z,87.72
2023-02-14T21:06:06.750Z,87.72
2023-02-14T21:08:34.232Z,88.02
2023-02-14T21:11:01.148Z,87.87
2023-02-14T21:13:28.015Z,88.13
2023-02-14T21:15:54.663Z,88.73
2023-02-14T21:18:21.793Z,88.56
2023-02-14T21:20:48.341Z,87.98
2023-02-14T21:23:14.930Z,88.23
2023-02-14T21:25:41.505Z,88.76
2023-02-14T21:28:08.093Z,88.14
2023-02-14T21:30:34.721Z,88.54
2023-02-14T21:33:01.336Z,88.48
2023-02-14T21:35:27.928Z,88.88
2023-02-14T21:37:54.491Z,89.91
2023-02-14T21:40:22.629Z,89.44
2023-02-14T21:42:50.264Z,89.20
2023-02-14T21:45:35.608Z,88.92
2023-02-14T21:48:20.806Z,89.41
2023-02-14T21:50:47.374Z,89.31
2023-02-14T21:53:14.037Z,89.08
2023-02-14T21:55:42.727Z,88.78
2023-02-14T21:58:09.366Z,88.19
2023-02-14T22:00:35.947Z,88.40
2023-02-14T22:03:02.758Z,88.64
2023-02-14T22:05:29.437Z,88.62
2023-02-14T22:07:56.110Z,88.65
2023-02-14T22:10:22.765Z,88.55
2023-02-14T22:12:49.365Z,88.60
2023-02-14T22:15:16.035Z,89.19
2023-02-14T22:17:42.587Z,89.04
2023-02-14T22:20:10.437Z,89.98
2023-02-14T22:22:37.116Z,89.48
2023-02-14T22:25:03.974Z,89.99
2023-02-14T22:27:30.662Z,89.63
2023-02-14T22:29:57.332Z,89.81
2023-02-14T22:32:24.033Z,90.20
2023-02-14T22:34:50.693Z,89.96
2023-02-14T22:37:17.316Z,90.11
2023-02-14T22:39:43.941Z,89.91
2023-02-14T22:42:11.062Z,89.57
2023-02-14T22:44:37.696Z,89.49
2023-02-14T22:47:04.469Z,89.14
2023-02-14T22:49:31.306Z,89.39
2023-02-14T22:51:57.943Z,89.29
2023-02-14T22:54:24.518Z,89.54
2023-02-14T22:56:51.404Z,89.59
2023-02-14T22:59:28.051Z,89.15
2023-02-14T23:01:54.852Z,89.32
2023-02-14T23:04:23.108Z,89.52
2023-02-14T23:06:51.864Z,89.78
2023-02-14T23:09:19.382Z,89.34
2023-02-14T23:11:47.512Z,89.63
2023-02-14T23:14:34.198Z,89.51
2023-02-14T23:17:20.524Z,88.91
2023-02-14T23:20:05.999Z,88.92
2023-02-14T23:22:38.459Z,89.17
2023-02-14T23:25:08.043Z,89.22
2023-02-14T23:27:37.815Z,89.07
2023-02-14T23:30:07.570Z,89.50
2023-02-14T23:32:34.268Z,89.74
2023-02-14T23:35:00.922Z,89.69
2023-02-14T23:37:27.843Z,89.76
2023-02-14T23:39:54.458Z,89.70
2023-02-14T23:42:21.185Z,89.88
2023-02-14T23:44:49.040Z,89.84
2023-02-14T23:47:16.210Z,89.63
2023-02-14T23:49:43.687Z,89.94
2023-02-14T23:52:12.403Z,89.43
2023-02-14T23:54:39.828Z,89.13
2023-02-14T23:57:07.436Z,89.43
2023-02-14T23:59:34.201Z,89.32
